createdAt,value
2022-11-04T00:05:00.939Z,9.45
2022-11-04T00:10:06.406Z,9.63
2022-11-04T00:15:36.162Z,9.80
2022-11-04T00:20:56.880Z,10.77
2022-11-04T00:26:18.804Z,11.05
2022-11-04T00:31:39.832Z,10.70
2022-11-04T00:36:43.056Z,9.30
2022-11-04T00:41:47.803Z,10.52
2022-11-04T00:46:51.183Z,9.30
2022-11-04T00:51:54.438Z,11.02
2022-11-04T00:56:59.329Z,14.18
2022-11-04T01:02:02.889Z,9.50
2022-11-04T01:07:06.522Z,11.32
2022-11-04T01:12:11.551Z,10.77
2022-11-04T01:17:14.825Z,10.65
2022-11-04T01:22:18.189Z,9.98
2022-11-04T01:27:22.836Z,12.55
2022-11-04T01:32:26.115Z,8.98
2022-11-04T01:37:29.365Z,9.73
2022-11-04T01:42:33.969Z,10.65
2022-11-04T01:47:41.214Z,11.27
2022-11-04T01:52:48.175Z,11.50
2022-11-04T01:57:57.111Z,12.25
2022-11-04T02:03:05.468Z,12.40
2022-11-04T02:08:10.550Z,11.73
2022-11-04T02:13:15.377Z,12.52
2022-11-04T02:18:30.846Z,10.88
2022-11-04T02:24:01.991Z,11.90
2022-11-04T02:29:36.468Z,12.82
2022-11-04T02:34:50.760Z,10.45
2022-11-04T02:40:00.498Z,10.10
2022-11-04T02:45:15.441Z,10.23
2022-11-04T02:50:25.290Z,15.07
2022-11-04T02:55:31.727Z,11.18
2022-11-04T03:00:38.225Z,10.05
2022-11-04T03:05:44.720Z,15.13
2022-11-04T03:10:53.709Z,10.60
2022-11-04T03:16:01.771Z,11.38
2022-11-04T03:21:10.829Z,13.43
2022-11-04T03:26:23.120Z,11.68
2022-11-04T03:31:31.499Z,10.65
2022-11-04T03:36:34.902Z,11.32
2022-11-04T03:41:43.563Z,13.63
2022-11-04T03:46:48.832Z,13.23
2022-11-04T03:51:53.457Z,12.32
2022-11-04T03:57:14.280Z,15.57
2022-11-04T04:02:24.433Z,14.90
2022-11-04T04:07:34.542Z,15.13
2022-11-04T04:12:41.518Z,11.15
2022-11-04T04:17:51.532Z,13.57
2022-11-04T04:22:59.955Z,16.30
2022-11-04T04:28:04.890Z,19.40
2022-11-04T04:33:12.195Z,17.60
2022-11-04T04:38:38.731Z,17.90
2022-11-04T04:44:02.208Z,13.23
2022-11-04T04:49:08.296Z,14.60
2022-11-04T04:54:11.840Z,14.98
2022-11-04T04:59:15.492Z,16.17
2022-11-04T05:04:20.068Z,15.52
2022-11-04T05:09:23.455Z,14.05
2022-11-04T05:14:26.860Z,15.95
2022-11-04T05:19:32.201Z,13.98
2022-11-04T05:24:35.450Z,12.43
2022-11-04T05:29:38.712Z,18.08
2022-11-04T05:34:43.339Z,16.02
2022-11-04T05:39:46.574Z,16.90
2022-11-04T05:44:49.822Z,16.23
2022-11-04T05:49:54.468Z,12.55
2022-11-04T05:54:57.805Z,14.50
2022-11-04T06:00:01.186Z,12.20
2022-11-04T06:05:06.884Z,14.15
2022-11-04T06:10:11.357Z,16.40
2022-11-04T06:15:14.671Z,13.02
2022-11-04T06:20:19.648Z,11.40
2022-11-04T06:25:22.984Z,11.63
2022-11-04T06:30:26.258Z,12.00
2022-11-04T06:35:30.967Z,9.73
2022-11-04T06:40:34.474Z,10.27
2022-11-04T06:45:37.952Z,10.15
2022-11-04T06:50:42.689Z,10.68
2022-11-04T06:55:47.200Z,9.20
2022-11-04T07:00:54.105Z,12.02
2022-11-04T07:05:59.757Z,12.10
2022-11-04T07:11:03.110Z,15.85
2022-11-04T07:16:07.462Z,13.57
2022-11-04T07:21:13.315Z,16.98
2022-11-04T07:26:16.737Z,15.20
2022-11-04T07:31:20.181Z,15.10
2022-11-04T07:36:24.965Z,16.13
2022-11-04T07:41:28.213Z,18.52
2022-11-04T07:46:31.761Z,15.27
2022-11-04T07:51:36.574Z,16.63
2022-11-04T07:56:39.821Z,15.55
2022-11-04T08:01:43.209Z,18.40
2022-11-04T08:06:48.006Z,15.65
2022-11-04T08:11:51.426Z,15.30
2022-11-04T08:16:54.705Z,13.75
2022-11-04T08:21:59.429Z,16.02
2022-11-04T08:27:03.060Z,16.75
2022-11-04T08:32:08.088Z,16.15
2022-11-04T08:37:14.956Z,15.77
2022-11-04T08:42:20.527Z,15.43
2022-11-04T08:47:24.446Z,18.52
2022-11-04T08:52:29.112Z,18.48
2022-11-04T08:57:32.399Z,16.55
2022-11-04T09:02:35.685Z,18.27
2022-11-04T09:07:40.421Z,13.68
2022-11-04T09:19:00.364Z,15.20
2022-11-04T09:24:06.161Z,14.18
2022-11-04T09:29:10.008Z,17.38
2022-11-04T09:34:13.540Z,16.23
2022-11-04T09:39:18.813Z,17.33
2022-11-04T09:44:27.280Z,15.43
2022-11-04T09:49:37.758Z,14.23
2022-11-04T09:54:49.644Z,13.52
2022-11-04T09:59:53.983Z,12.23
2022-11-04T10:05:06.320Z,12.57
2022-11-04T10:10:18.919Z,15.52
2022-11-04T10:15:40.498Z,12.73
2022-11-04T10:20:53.355Z,11.43
2022-11-04T10:26:06.325Z,11.43
2022-11-04T10:31:13.080Z,10.15
2022-11-04T10:36:18.274Z,9.63
2022-11-04T10:41:31.793Z,8.82
2022-11-04T10:46:48.389Z,8.13
2022-11-04T10:51:51.766Z,9.02
2022-11-04T10:56:58.528Z,8.25
2022-11-04T11:02:03.938Z,6.57
2022-11-04T11:07:10.237Z,6.05
2022-11-04T11:12:50.167Z,6.80
2022-11-04T11:18:01.469Z,5.85
2022-11-04T11:23:09.841Z,4.47
2022-11-04T11:28:24.166Z,3.60
2022-11-04T11:33:29.754Z,3.53
2022-11-04T11:45:18.763Z,2.88
2022-11-04T11:50:26.258Z,3.67
2022-11-04T11:55:37.782Z,2.58
2022-11-04T12:00:52.008Z,3.33
2022-11-04T12:11:29.457Z,1.63
2022-11-04T12:16:43.876Z,1.83
2022-11-04T12:21:51.678Z,2.25
2022-11-04T12:27:02.692Z,2.05
2022-11-04T12:32:14.776Z,1.30
2022-11-04T12:37:26.890Z,1.05
2022-11-04T12:42:40.083Z,1.52
2022-11-04T12:47:46.425Z,1.15
2022-11-04T12:53:09.037Z,1.35
2022-11-04T12:58:30.048Z,1.27
2022-11-04T13:03:41.448Z,0.80
2022-11-04T13:08:50.924Z,1.10
2022-11-04T13:14:05.325Z,2.15
2022-11-04T13:19:23.862Z,0.75
2022-11-04T13:24:32.261Z,1.52
2022-11-04T13:29:37.324Z,1.05
2022-11-04T13:34:49.748Z,1.40
2022-11-04T13:39:56.673Z,1.05
2022-11-04T13:51:37.053Z,0.88
2022-11-04T13:56:42.054Z,0.82
2022-11-04T14:01:45.661Z,0.50
2022-11-04T14:06:57.006Z,0.65
2022-11-04T14:12:26.243Z,0.47
2022-11-04T14:18:05.882Z,0.50
2022-11-04T14:23:24.026Z,0.38
2022-11-04T14:28:29.725Z,0.30
2022-11-04T14:33:40.630Z,0.30
2022-11-04T14:38:46.250Z,0.40
2022-11-04T14:43:51.880Z,0.85
2022-11-04T14:48:58.079Z,0.45
2022-11-04T14:54:06.620Z,0.60
2022-11-04T14:59:21.707Z,0.40
2022-11-04T15:04:27.555Z,0.50
2022-11-04T15:09:34.586Z,0.30
2022-11-04T15:14:38.779Z,0.35
2022-11-04T15:19:43.092Z,0.30
2022-11-04T15:24:47.953Z,0.20
2022-11-04T15:29:56.034Z,0.20
2022-11-04T15:35:00.260Z,0.30
2022-11-04T15:40:07.650Z,0.20
2022-11-04T15:45:29.742Z,0.50
2022-11-04T15:50:33.392Z,0.95
2022-11-04T15:55:39.524Z,0.40
2022-11-04T16:00:53.003Z,0.40
2022-11-04T16:06:04.685Z,0.38
2022-11-04T16:11:15.257Z,1.13
2022-11-04T16:16:24.937Z,0.65
2022-11-04T16:21:31.244Z,0.45
2022-11-04T16:26:40.869Z,0.57
2022-11-04T16:31:44.498Z,0.40
2022-11-04T16:36:51.947Z,0.65
2022-11-04T16:41:57.868Z,0.40
2022-11-04T16:47:03.307Z,0.47
2022-11-04T16:59:16.031Z,0.35
2022-11-04T17:04:19.586Z,0.40
2022-11-04T17:09:24.404Z,0.63
2022-11-04T17:14:29.997Z,0.30
2022-11-04T17:19:35.128Z,3.33
2022-11-04T17:24:45.018Z,0.65
2022-11-04T17:29:51.741Z,1.23
2022-11-04T17:34:56.716Z,0.82
2022-11-04T17:40:01.182Z,0.50
2022-11-04T17:45:08.670Z,0.45
2022-11-04T17:50:13.902Z,0.80
2022-11-04T17:55:20.717Z,0.40
2022-11-04T18:00:30.670Z,1.30
2022-11-04T18:05:35.086Z,0.40
2022-11-04T18:10:39.036Z,0.50
2022-11-04T18:15:45.682Z,0.70
2022-11-04T18:20:51.501Z,0.68
2022-11-04T18:25:54.984Z,1.17
2022-11-04T18:31:01.206Z,1.08
2022-11-04T18:36:07.309Z,0.63
2022-11-04T18:41:12.443Z,1.10
2022-11-04T18:46:22.729Z,0.88
2022-11-04T18:51:27.032Z,1.15
2022-11-04T18:56:31.216Z,0.45
2022-11-04T19:01:38.322Z,0.50
2022-11-04T19:06:44.930Z,0.50
2022-11-04T19:12:09.457Z,2.05
2022-11-04T19:17:15.715Z,0.57
2022-11-04T19:22:20.372Z,0.35
2022-11-04T19:27:25.393Z,0.88
2022-11-04T19:32:31.169Z,0.57
2022-11-04T19:37:35.468Z,0.47
2022-11-04T19:42:57.212Z,2.38
2022-11-04T19:48:05.337Z,0.70
2022-11-04T19:53:13.324Z,1.23
2022-11-04T19:58:20.537Z,0.60
2022-11-04T20:03:26.484Z,0.57
2022-11-04T20:08:32.034Z,0.60
2022-11-04T20:19:57.347Z,0.50
2022-11-04T20:25:06.287Z,2.65
2022-11-04T20:30:15.512Z,5.97
2022-11-04T20:35:23.847Z,0.50
2022-11-04T20:40:28.966Z,0.90
2022-11-04T20:45:33.494Z,0.57
2022-11-04T20:50:39.734Z,0.55
2022-11-04T20:55:49.448Z,0.60
2022-11-04T21:00:53.629Z,1.75
2022-11-04T21:05:59.565Z,0.93
2022-11-04T21:11:04.813Z,0.70
2022-11-04T21:16:09.319Z,1.25
2022-11-04T21:21:17.364Z,1.33
2022-11-04T21:26:23.700Z,0.85
2022-11-04T21:31:28.632Z,0.77
2022-11-04T21:36:34.452Z,1.40
2022-11-04T21:41:38.534Z,1.20
2022-11-04T21:46:43.124Z,0.85
2022-11-04T21:51:48.591Z,0.60
2022-11-04T21:56:52.548Z,0.70
2022-11-04T22:01:56.049Z,0.70
2022-11-04T22:07:00.899Z,0.85
2022-11-04T22:12:04.159Z,1.42
2022-11-04T22:17:07.407Z,1.00
2022-11-04T22:22:12.060Z,0.70
2022-11-04T22:27:15.402Z,0.88
2022-11-04T22:32:18.672Z,0.60
2022-11-04T22:37:23.560Z,0.80
2022-11-04T22:42:26.830Z,1.25
